Monday, April 24, 2017, 10:48 PM EDT

KDOV, Dover Air Force Base

Location: Dover, DE, United States Lat: 39.133
Local Time: 10:48 PM EDT ( 2:48 GMT) Lon: -75.467
Time Zone: US/Eastern Elev: 29 ft

Show me the last for .
Show Decoded

2017-04-24 22:23 METAR KDOV 250223Z AUTO 05011KT 10SM BKN012 BKN021 OVC030 11/11 A3003 RMK AO2
                 SLP172 =
2017-04-24 22:18 METAR KDOV 250218Z AUTO 05012KT 10SM BKN011 OVC030 11/11 A3003 RMK AO2 SLP172 $
                 =
2017-04-24 22:13 METAR KDOV 250213Z AUTO 05010KT 10SM BKN012 OVC029 11/11 A3003 RMK AO2 SLP172 =
2017-04-24 21:58 METAR KDOV 250158Z AUTO 05011KT 10SM OVC010 11/11 A3003 =
2017-04-24 21:57 METAR KDOV 250157Z AUTO 04011KT 10SM OVC010 11/11 A3003 =
2017-04-24 21:56 METAR KDOV 250156Z AUTO 04011KT 10SM OVC011 11/11 A3004 =
2017-04-24 21:46 METAR KDOV 250146Z AUTO 05012KT 9SM R01/5500FT -DZ OVC011 11/11 A3004 RMK AO2
                 RAE22DZB22E24RAB24E41DZB46 OVC V BKN SLP176 $ =
2017-04-24 21:41 METAR KDOV 250141Z AUTO 05012KT 10SM BKN012 OVC033 11/11 A3004 RMK AO2
                 RAE22DZB22E24RAB24E41 SLP176 =
2017-04-24 21:28 METAR KDOV 250128Z AUTO 06011KT 10SM -RA BKN014 OVC033 11/11 A3004 RMK AO2
                 RAE22DZB22E24RAB24 CIG 014V033 BKN V SCT SLP176 $ =
2017-04-24 21:23 METAR KDOV 250123Z AUTO 05009KT 10SM -DZ SCT014 OVC033 11/11 A3004 RMK AO2
                 RAE22DZB22 CIG 013 RWY19 SLP176 $ =
2017-04-24 21:13 METAR KDOV 250113Z AUTO 05013KT 9SM -RA BKN015 OVC033 11/11 A3004 RMK AO2 SLP176
                 =
2017-04-24 21:08 METAR KDOV 250108Z AUTO 05014KT 9SM R01/5500FT -RA BKN015 OVC033 11/11 A3004 RMK
                 AO2 SLP176 =
2017-04-24 21:03 METAR KDOV 250103Z AUTO 05013KT 10SM -RA BKN015 OVC034 11/11 A3004 RMK AO2
                 SLP176 $ =
2017-04-24 20:58 METAR KDOV 250058Z AUTO 05014KT 10SM -RA BKN014 OVC034 11/11 A3004 =
2017-04-24 20:56 METAR KDOV 250056Z AUTO 05014KT 10SM -RA BKN014 OVC034 11/11 A3004 RMK AO2
                 RAE15RAB51 SLP176 $ =
2017-04-24 20:51 METAR KDOV 250051Z AUTO 05015KT 10SM -RA BKN015 OVC034 11/11 A3004 RMK AO2
                 RAE15RAB51 CIG 015V034 BKN V SCT SLP176 =
2017-04-24 20:45 METAR KDOV 250045Z AUTO 05012KT 10SM BKN015 OVC034 11/11 A3004 RMK AO2 RAE15 CIG
                 015V034 BKN V SCT SLP176 $ =
2017-04-24 20:15 METAR KDOV 250015Z AUTO 04012KT 10SM OVC033 11/11 A3003 RMK AO2 RAE15 SLP172 =
2017-04-24 20:13 METAR KDOV 250013Z AUTO 04010KT 9SM -RA OVC033 12/12 A3003 RMK AO2 SLP172 =
2017-04-24 20:08 METAR KDOV 250008Z AUTO 05011KT 8SM R01/5500FT -RA OVC033 12/12 A3003 RMK AO2
                 SLP172 =
2017-04-24 19:58 METAR KDOV 242358Z AUTO 05012G19KT 4SM -RA BR FEW022 OVC036 12/12 A3003 =
2017-04-24 19:49 METAR KDOV 242349Z AUTO 06012G19KT 5SM -RA BR SCT022 OVC035 12/12 A3003 RMK AO2
                 RAB34 SLP172 $ =
2017-04-24 19:34 METAR KDOV 242334Z AUTO 05014KT 10SM -RA OVC022 13/13 A3003 RMK AO2 RAB34 OVC V
                 BKN SLP172 =
2017-04-24 19:08 METAR KDOV 242308Z AUTO 05015KT 10SM BKN025 OVC034 13/13 A3003 RMK AO2 CIG
                 025V034 SLP172 $ =
2017-04-24 18:58 METAR KDOV 242258Z AUTO 05016G21KT 10SM FEW028 OVC034 13/13 A3002 =
2017-04-24 17:58 METAR KDOV 242158Z AUTO 05013G20KT 10SM OVC034 13/12 A3003 =
2017-04-24 17:29 METAR KDOV 242129Z AUTO 05011KT 10SM FEW029 OVC036 13/13 A3004 RMK AO2
                 RAB15E16DZB16E17RAB17E25DZB25E29 SLP176 =
2017-04-24 17:15 METAR KDOV 242115Z AUTO 05011KT 10SM -RA OVC038 14/13 A3004 RMK AO2 RAB15 SLP176
                 =
2017-04-24 16:58 METAR KDOV 242058Z AUTO 04007KT 10SM OVC039 13/13 A3004 RMK AO2 RAB40E52 SLP176
                 P0000 60000 T01340127 58010 $ =
2017-04-24 16:52 METAR KDOV 242052Z AUTO 04008KT 10SM BKN038 13/13 A3004 RMK AO2 RAB40E52 SLP176
                 =
2017-04-24 16:40 METAR KDOV 242040Z AUTO 05011KT 10SM -RA FEW031 BKN039 13/12 A3004 RMK AO2 RAB40
                 SLP176 =
2017-04-24 15:58 METAR KDOV 241958Z AUTO 06014KT 10SM FEW031 OVC039 14/13 A3005 =
2017-04-24 14:58 METAR KDOV 241858Z AUTO 06011G19KT 10SM OVC045 14/14 A3006 =
2017-04-24 13:58 METAR KDOV 241758Z AUTO 06014KT 10SM FEW017 OVC050 13/13 A3007 =
2017-04-24 13:56 METAR KDOV 241756Z AUTO 06015KT 10SM FEW017 OVC050 13/13 A3007 RMK AO2
                 RAB17E50DZB50E56 SLP186 $ =
2017-04-24 13:17 METAR KDOV 241717Z AUTO 08014KT 10SM -RA FEW020 OVC048 13/13 A3008 =
2017-04-24 12:58 METAR KDOV 241658Z AUTO 08013KT 10SM SCT020 BKN049 OVC060 14/14 A3008 =
2017-04-24 11:58 METAR KDOV 241558Z AUTO 05012KT 10SM OVC060 13/13 A3009 RMK AO2 SLP193 T01300128
                 $ =
2017-04-24 10:58 METAR KDOV 241458Z AUTO 04012KT 10SM OVC060 13/13 A3010 =
2017-04-24 09:58 METAR KDOV 241358Z AUTO 04007KT 10SM OVC065 12/12 A3011 =
2017-04-24 08:58 METAR KDOV 241258Z AUTO 03006KT 10SM OVC065 11/11 A3011 =
2017-04-24 08:46 METAR KDOV 241246Z AUTO 03007KT 10SM OVC065 11/11 A3010 RMK AO2
                 RAB33E43DZB43E45RAB45E46 SLP196 =
2017-04-24 08:33 METAR KDOV 241233Z AUTO 04007KT 10SM -RA OVC065 11/11 A3011 RMK AO2 RAB33 SLP199
                 =
2017-04-24 07:58 METAR KDOV 241158Z AUTO 04009KT 10SM OVC070 11/11 A3009 =
2017-04-24 07:44 METAR KDOV 241144Z AUTO 03007KT 10SM FEW043 OVC065 10/10 A3009 RMK AO2
                 RAB27E42DZB42E44 SLP193 =
2017-04-24 07:27 METAR KDOV 241127Z AUTO 05007KT 10SM -RA FEW035 OVC060 10/10 A3008 RMK AO2 RAB27
                 SLP189 =
2017-04-24 06:58 METAR KDOV 241058Z AUTO 05010KT 10SM BKN065 BKN080 10/10 A3007 =
2017-04-24 06:11 METAR KDOV 241011Z AUTO 05006KT 10SM FEW049 BKN075 10/10 A3008 RMK AO2
                 RAE09DZB09E11 SLP189 =
2017-04-24 05:58 METAR KDOV 240958Z AUTO 04008KT 10SM -RA FEW049 SCT060 OVC080 10/10 A3007 RMK
                 AO2 RAB47 SLP186 P0000 T01040104 $ =
2017-04-24 05:47 METAR KDOV 240947Z AUTO 04006KT 10SM -RA OVC080 10/10 A3008 RMK AO2 RAB47 SLP189
                 =
2017-04-24 04:58 METAR KDOV 240858Z AUTO 07007KT 10SM OVC090 10/10 A3007 =
2017-04-24 03:58 METAR KDOV 240758Z AUTO 05006KT 10SM OVC095 11/11 A3007 RMK AO2 SLP186 T01060106
                 $ =
2017-04-24 02:58 METAR KDOV 240658Z AUTO 05004KT 10SM OVC100 10/10 A3007 =
2017-04-24 01:58 METAR KDOV 240558Z AUTO 09005KT 10SM OVC110 11/11 A3009 =
2017-04-24 00:58 METAR KDOV 240458Z AUTO 11004KT 10SM OVC110 11/11 A3010 =
2017-04-23 23:58 METAR KDOV 240358Z AUTO 08003KT 10SM BKN120 BKN150 10/10 A3010 =
2017-04-23 22:58 METAR KDOV 240258Z AUTO 00000KT 10SM CLR 10/10 A3011 =

Support USWX by starting your Amazon purchase here.